x

Pensacola - 115nm Ese Of Pensacola, Fl (42039) Wave Buoy

8:50pm - Tue 3rd Mar 2015 All times are CST. -6 hours from GMT.

  • Sig Wave height 1.6ft
  • Swell Direction
  • Peak Period 6s
  • Average Period 4s
  • Wind
    9mph, 11mph gusts
  • Sea Temp 67°f
  • Air Temp 68°f
  • Sea Pressure 1019.5mb
  • Pensacola - 115nm Ese Of Pensacola, Fl
  • Pensacola - 115nm Ese Of Pensacola, Fl

More Historic Weather Station data

Upgrade to MSW Pro to gain access to the past 30 days of data for over 8000 Wavebouys and Weather Stations around the globe.

Join Pro

Comparision Forecast

View Surf forecast
   
Tue 03/03 8:50pm 1.6ft 6s 4s 9 11 mph 1019.5mb 67f 68f
7:50pm 1.3ft 4s 4s 9
mph
1019.6mb 68f 68f
6:50pm 1.6ft 4s 4s 11 16 mph 1019.2mb 68f 68f
5:50pm 1.6ft 4s 4s 7
mph
1019.4mb 68f 68f
4:50pm 1.6ft 4s 4s 4 7 mph 1019.5mb 68f 68f
3:50pm 1.6ft 4s 4s 7 9 mph 1019.8mb 68f 68f
2:50pm 1.6ft 4s 4s 4 7 mph 1019.9mb 68f 68f
1:50pm 1.6ft 3s 4s 7 9 mph 1020.4mb 68f 68f
12:50pm 2ft 3s 4s 11 13 mph 1021.3mb 67f 67f
11:50am 1.6ft 3s 4s 13 16 mph 1022.1mb 67f 66f
10:50am 1.6ft 3s 4s 11 16 mph 1022.4mb 67f 66f
9:50am 1.6ft 7s 4s 13 16 mph 1022.7mb 67f 65f
8:50am 1.3ft 6s 4s 16 18 mph 1022.9mb 67f 64f
7:50am 1.3ft 7s 4s 11 13 mph 1023mb 67f 64f
6:50am 1.3ft 7s 5s 11
mph
1022.6mb 67f 64f
5:50am 1.3ft 6s 5s 7 9 mph 1022mb 67f 64f
4:50am 1.3ft 7s 5s 4 7 mph 1021.8mb 67f 63f
3:50am 1.3ft 7s 5s 4 7 mph 1021.7mb 67f 64f
2:50am 1.3ft 6s 5s 2 4 mph 1021.8mb 67f 65f
1:50am 1.3ft 7s 5s 2 4 mph 1022.4mb 67f 65f
12:50am 1.3ft 7s 5s 2 4 mph 1023.1mb 67f 65f
Mon 03/02 11:50pm 1.3ft 7s 5s 4
mph
1023.4mb 67f 66f
10:50pm 1.3ft 7s 5s 4 7 mph 1024.1mb 67f 66f
9:50pm 1.3ft 8s 5s 4 9 mph 1024.5mb 67f 66f
8:50pm 1.3ft 6s 5s 4
mph
1024.6mb 68f 66f
7:50pm 1.6ft 6s 5s 4
mph
1024.5mb 68f 67f
6:50pm 1.3ft 5s 5s 2
mph
1024mb 68f 67f
5:50pm 1.3ft 6s 4s 2
mph
1023.9mb 68f 67f
4:50pm 1.6ft 6s 5s 2
mph
1023.7mb 68f 67f
3:50pm 1.6ft 6s 4s 4
mph
1024mb 68f 67f
2:50pm 1.6ft 6s 4s 4
mph
1023.9mb 67f 68f
1:50pm 1.6ft 6s 4s 4 7 mph 1024.3mb 67f 67f
12:50pm 1.6ft 6s 4s 7 9 mph 1024.8mb 67f 67f
11:50am 1.6ft 4s 4s 11 16 mph 1025.5mb 67f 67f
10:50am 1.6ft 4s 4s 11 13 mph 1026.5mb 67f 66f
9:50am 2ft 4s 4s 9 13 mph 1026.7mb 67f 65f
8:50am 2ft 4s 4s 11 13 mph 1026.5mb 67f 65f
7:50am 2ft 4s 4s 11 13 mph 1026.1mb 67f 65f
6:50am 2.5ft 4s 4s 16
mph
1025.5mb 67f 65f
5:50am 2.5ft 4s 4s 13 18 mph 1025.4mb 67f 65f
4:50am 2.5ft 4s 4s 13 16 mph 1025.5mb 67f 65f
3:50am 2.5ft 5s 4s 13 18 mph 1025.7mb 67f 64f
2:50am 3ft 5s 4s 16 20 mph 1025.7mb 67f 65f
1:50am 2.5ft 4s 4s 16 18 mph 1026.3mb 67f 65f
12:50am 3ft 5s 4s 16 18 mph 1026.7mb 67f 66f
Sun 03/01 11:50pm 2.5ft 5s 4s 16 18 mph 1026.8mb 68f 65f
10:50pm 2.5ft 5s 4s 13 16 mph 1027mb 68f 66f
9:50pm 2.5ft 5s 4s 13 16 mph 1027.1mb 68f 66f
8:50pm 2.5ft 5s 4s 13 16 mph 1026.8mb 68f 66f
7:50pm 2.5ft 5s 4s 11 13 mph 1026.6mb 68f 66f
6:50pm 3ft 5s 5s 11 13 mph 1026.1mb 68f 66f
5:50pm 3.5ft 6s 5s 9 11 mph 1025.8mb 68f 66f
4:50pm 3ft 6s 5s 9 11 mph 1025.6mb 68f 66f
3:50pm 3.5ft 6s 5s 9 11 mph 1025.4mb 68f 66f
2:50pm 3.5ft 6s 5s 9
mph
1025.5mb 68f 66f
1:50pm 4.5ft 6s 5s 13
mph
1025.3mb 68f 66f
12:50pm 4ft 6s 5s 16 18 mph 1025.7mb 68f 66f
11:50am 4.5ft 6s 5s 16 20 mph 1026.8mb 68f 66f
10:50am 4.5ft 7s 5s 18 20 mph 1027.7mb 67f 66f
9:50am 5ft 7s 5s 18 20 mph 1028.1mb 67f 65f
8:50am 5ft 7s 5s 18 20 mph 1028.1mb 67f 64f
7:50am 5ft 7s 5s 18 20 mph 1027.9mb 67f 64f
6:50am 6ft 6s 5s 18 22 mph 1027.5mb 67f 64f
5:50am 6ft 7s 5s 18 22 mph 1027.3mb 67f 63f
4:50am 7ft 7s 6s 20 22 mph 1026.7mb 67f 62f
3:50am 6.5ft 7s 5s 20 25 mph 1026.2mb 67f 62f
2:50am 7ft 7s 6s 20 25 mph 1026.3mb 67f 62f
1:50am 7.5ft 7s 6s 20 25 mph 1026.6mb 67f 62f
12:50am 7ft 8s 6s 18 22 mph 1027.1mb 68f 63f
Sat 02/28 11:50pm 8ft 8s 6s 20 25 mph 1027.3mb 68f 64f
10:50pm 8.5ft 8s 6s 25 27 mph 1027mb 68f 63f
9:50pm 8ft 8s 6s 25 31 mph 1027.1mb 68f 62f
8:50pm 9ft 8s 6s 25 31 mph 1027.2mb 68f 62f
7:50pm 7.5ft 8s 5s 27 34 mph 1026.6mb 67f 61f
6:50pm 7.5ft 7s 6s 25 29 mph 1026.5mb 67f 61f
5:50pm 7ft 7s 5s 27 31 mph 1026.1mb 67f 61f
4:50pm 6ft 7s 5s 25 31 mph 1025.6mb 67f 62f
3:50pm 7ft 7s 5s 25 27 mph 1025.2mb 67f 61f
2:50pm 6ft 7s 5s 22 27 mph 1025.1mb 67f 61f
1:50pm 6ft 7s 5s 22 29 mph 1025.4mb 67f 60f
12:50pm 6ft 7s 5s 22 25 mph 1026.3mb 67f 60f
11:50am 6ft 7s 5s 22 27 mph 1027.2mb 67f 60f
10:50am 5.5ft 7s 5s 22 27 mph 1027.9mb 67f 60f
9:50am 5.5ft 7s 5s 20 25 mph 1028.2mb 67f 59f
8:50am 5.5ft 6s 5s 18 25 mph 1028.4mb 67f 59f
7:50am 6ft 7s 5s 20 25 mph 1027.4mb 67f 59f
6:50am 6ft 7s 5s 22 25 mph 1027.1mb 67f 58f
5:50am 5.5ft 6s 5s 22 27 mph 1025.8mb 67f 58f
4:50am 6ft 7s 5s 20 25 mph 1026.3mb 67f 57f